sensor_id;sensor_type;location;lat;lon;timestamp;P1;durP1;ratioP1;P2;durP2;ratioP2
39982;SDS011;25670;44.782;10.356;2023-03-16T00:02:08;3.70;;;2.45;;
39982;SDS011;25670;44.782;10.356;2023-03-16T00:04:35;2.85;;;2.40;;
39982;SDS011;25670;44.782;10.356;2023-03-16T00:07:09;2.50;;;2.30;;
39982;SDS011;25670;44.782;10.356;2023-03-16T00:09:36;2.05;;;1.95;;
39982;SDS011;25670;44.782;10.356;2023-03-16T00:12:12;3.20;;;2.33;;
39982;SDS011;25670;44.782;10.356;2023-03-16T00:14:42;3.25;;;2.75;;
39982;SDS011;25670;44.782;10.356;2023-03-16T00:17:10;3.83;;;2.80;;
39982;SDS011;25670;44.782;10.356;2023-03-16T00:19:44;2.72;;;2.53;;
39982;SDS011;25670;44.782;10.356;2023-03-16T00:22:12;4.75;;;2.40;;
39982;SDS011;25670;44.782;10.356;2023-03-16T00:24:40;2.35;;;2.22;;
39982;SDS011;25670;44.782;10.356;2023-03-16T00:27:08;9.07;;;2.60;;
39982;SDS011;25670;44.782;10.356;2023-03-16T00:29:42;3.10;;;2.72;;
39982;SDS011;25670;44.782;10.356;2023-03-16T00:32:33;2.05;;;1.95;;
39982;SDS011;25670;44.782;10.356;2023-03-16T00:34:59;2.30;;;2.10;;
39982;SDS011;25670;44.782;10.356;2023-03-16T00:37:29;2.40;;;2.20;;
39982;SDS011;25670;44.782;10.356;2023-03-16T00:39:58;2.30;;;2.10;;
39982;SDS011;25670;44.782;10.356;2023-03-16T00:42:26;4.55;;;2.13;;
39982;SDS011;25670;44.782;10.356;2023-03-16T00:44:55;2.40;;;2.20;;
39982;SDS011;25670;44.782;10.356;2023-03-16T00:47:25;2.72;;;2.08;;
39982;SDS011;25670;44.782;10.356;2023-03-16T00:49:56;2.00;;;1.90;;
39982;SDS011;25670;44.782;10.356;2023-03-16T00:52:23;4.15;;;1.75;;
39982;SDS011;25670;44.782;10.356;2023-03-16T00:54:52;4.25;;;2.40;;
39982;SDS011;25670;44.782;10.356;2023-03-16T00:57:19;2.33;;;2.13;;
39982;SDS011;25670;44.782;10.356;2023-03-16T00:59:47;3.30;;;2.50;;
39982;SDS011;25670;44.782;10.356;2023-03-16T01:02:14;1.98;;;1.88;;
39982;SDS011;25670;44.782;10.356;2023-03-16T01:04:44;2.45;;;2.25;;
39982;SDS011;25670;44.782;10.356;2023-03-16T01:07:11;3.38;;;2.40;;
39982;SDS011;25670;44.782;10.356;2023-03-16T01:09:39;2.15;;;2.05;;
39982;SDS011;25670;44.782;10.356;2023-03-16T01:12:07;3.20;;;2.33;;
39982;SDS011;25670;44.782;10.356;2023-03-16T01:14:36;8.00;;;1.73;;
39982;SDS011;25670;44.782;10.356;2023-03-16T01:17:03;2.22;;;2.13;;
39982;SDS011;25670;44.782;10.356;2023-03-16T01:19:33;2.25;;;2.10;;
39982;SDS011;25670;44.782;10.356;2023-03-16T01:22:01;5.57;;;2.00;;
39982;SDS011;25670;44.782;10.356;2023-03-16T01:24:28;2.72;;;2.53;;
39982;SDS011;25670;44.782;10.356;2023-03-16T01:26:55;3.05;;;1.73;;
39982;SDS011;25670;44.782;10.356;2023-03-16T01:29:22;2.42;;;2.33;;
39982;SDS011;25670;44.782;10.356;2023-03-16T01:31:50;2.00;;;1.90;;
39982;SDS011;25670;44.782;10.356;2023-03-16T01:34:17;4.63;;;2.47;;
39982;SDS011;25670;44.782;10.356;2023-03-16T01:36:45;2.35;;;1.98;;
39982;SDS011;25670;44.782;10.356;2023-03-16T01:39:13;2.75;;;2.55;;
39982;SDS011;25670;44.782;10.356;2023-03-16T01:41:44;2.50;;;2.30;;
39982;SDS011;25670;44.782;10.356;2023-03-16T01:44:13;3.00;;;2.50;;
39982;SDS011;25670;44.782;10.356;2023-03-16T01:46:41;2.60;;;2.40;;
39982;SDS011;25670;44.782;10.356;2023-03-16T01:49:20;2.50;;;2.30;;
39982;SDS011;25670;44.782;10.356;2023-03-16T01:52:09;3.70;;;3.40;;
39982;SDS011;25670;44.782;10.356;2023-03-16T01:54:41;3.42;;;3.08;;
39982;SDS011;25670;44.782;10.356;2023-03-16T02:02:13;2.22;;;2.08;;
39982;SDS011;25670;44.782;10.356;2023-03-16T02:04:44;2.75;;;2.55;;
39982;SDS011;25670;44.782;10.356;2023-03-16T02:07:33;2.65;;;2.45;;
39982;SDS011;25670;44.782;10.356;2023-03-16T02:10:09;6.50;;;3.10;;
39982;SDS011;25670;44.782;10.356;2023-03-16T02:12:37;4.78;;;2.72;;
39982;SDS011;25670;44.782;10.356;2023-03-16T02:15:04;3.80;;;3.50;;
39982;SDS011;25670;44.782;10.356;2023-03-16T02:17:31;2.70;;;2.50;;
39982;SDS011;25670;44.782;10.356;2023-03-16T02:22:43;4.10;;;2.22;;
39982;SDS011;25670;44.782;10.356;2023-03-16T02:25:12;2.75;;;2.50;;
39982;SDS011;25670;44.782;10.356;2023-03-16T02:28:13;2.58;;;2.08;;
39982;SDS011;25670;44.782;10.356;2023-03-16T02:30:34;2.47;;;2.28;;
39982;SDS011;25670;44.782;10.356;2023-03-16T02:33:02;6.22;;;2.55;;
39982;SDS011;25670;44.782;10.356;2023-03-16T02:35:30;2.08;;;1.63;;
39982;SDS011;25670;44.782;10.356;2023-03-16T02:37:56;1.70;;;1.60;;
39982;SDS011;25670;44.782;10.356;2023-03-16T02:40:29;5.13;;;2.13;;
39982;SDS011;25670;44.782;10.356;2023-03-16T02:45:35;1.85;;;1.60;;
39982;SDS011;25670;44.782;10.356;2023-03-16T02:48:09;3.03;;;2.67;;
39982;SDS011;25670;44.782;10.356;2023-03-16T02:50:44;2.15;;;1.65;;
39982;SDS011;25670;44.782;10.356;2023-03-16T02:53:13;1.55;;;0.93;;
39982;SDS011;25670;44.782;10.356;2023-03-16T02:55:39;3.10;;;0.93;;
39982;SDS011;25670;44.782;10.356;2023-03-16T02:58:06;1.17;;;1.08;;
39982;SDS011;25670;44.782;10.356;2023-03-16T03:00:33;1.08;;;0.80;;
39982;SDS011;25670;44.782;10.356;2023-03-16T03:02:59;1.17;;;1.08;;
39982;SDS011;25670;44.782;10.356;2023-03-16T03:05:26;1.40;;;1.10;;
39982;SDS011;25670;44.782;10.356;2023-03-16T03:07:52;1.33;;;0.95;;
39982;SDS011;25670;44.782;10.356;2023-03-16T03:10:19;3.45;;;1.20;;
39982;SDS011;25670;44.782;10.356;2023-03-16T03:12:47;0.90;;;0.90;;
39982;SDS011;25670;44.782;10.356;2023-03-16T03:15:14;2.40;;;0.75;;
39982;SDS011;25670;44.782;10.356;2023-03-16T03:17:57;1.83;;;0.57;;
39982;SDS011;25670;44.782;10.356;2023-03-16T03:20:24;1.35;;;1.13;;
39982;SDS011;25670;44.782;10.356;2023-03-16T03:22:52;1.52;;;0.80;;
39982;SDS011;25670;44.782;10.356;2023-03-16T03:25:19;0.88;;;0.65;;
39982;SDS011;25670;44.782;10.356;2023-03-16T03:27:47;1.88;;;1.00;;
39982;SDS011;25670;44.782;10.356;2023-03-16T03:30:18;0.80;;;0.80;;
39982;SDS011;25670;44.782;10.356;2023-03-16T03:32:47;1.05;;;0.95;;
39982;SDS011;25670;44.782;10.356;2023-03-16T03:35:14;0.75;;;0.75;;
39982;SDS011;25670;44.782;10.356;2023-03-16T03:37:42;1.23;;;1.10;;
39982;SDS011;25670;44.782;10.356;2023-03-16T03:40:10;1.27;;;1.17;;
39982;SDS011;25670;44.782;10.356;2023-03-16T03:42:40;2.35;;;0.80;;
39982;SDS011;25670;44.782;10.356;2023-03-16T03:45:07;0.98;;;0.88;;
39982;SDS011;25670;44.782;10.356;2023-03-16T03:47:38;1.27;;;1.05;;
39982;SDS011;25670;44.782;10.356;2023-03-16T03:50:11;1.27;;;1.17;;
39982;SDS011;25670;44.782;10.356;2023-03-16T03:53:09;1.30;;;1.20;;
39982;SDS011;25670;44.782;10.356;2023-03-16T03:55:49;1.50;;;1.40;;
39982;SDS011;25670;44.782;10.356;2023-03-16T03:58:15;1.80;;;1.70;;
39982;SDS011;25670;44.782;10.356;2023-03-16T04:00:42;1.73;;;1.33;;
39982;SDS011;25670;44.782;10.356;2023-03-16T04:03:08;1.95;;;1.75;;
39982;SDS011;25670;44.782;10.356;2023-03-16T04:05:42;1.85;;;1.50;;
39982;SDS011;25670;44.782;10.356;2023-03-16T04:08:08;2.25;;;1.85;;
39982;SDS011;25670;44.782;10.356;2023-03-16T04:10:35;2.50;;;1.77;;
39982;SDS011;25670;44.782;10.356;2023-03-16T04:13:01;1.42;;;1.33;;
39982;SDS011;25670;44.782;10.356;2023-03-16T04:15:31;2.50;;;1.88;;
39982;SDS011;25670;44.782;10.356;2023-03-16T04:18:16;2.72;;;1.90;;
39982;SDS011;25670;44.782;10.356;2023-03-16T04:20:42;1.67;;;1.33;;
39982;SDS011;25670;44.782;10.356;2023-03-16T04:23:14;2.17;;;1.63;;
39982;SDS011;25670;44.782;10.356;2023-03-16T04:25:41;2.17;;;1.73;;
39982;SDS011;25670;44.782;10.356;2023-03-16T04:28:08;1.70;;;1.60;;
39982;SDS011;25670;44.782;10.356;2023-03-16T04:30:37;3.03;;;2.00;;
39982;SDS011;25670;44.782;10.356;2023-03-16T04:33:16;1.80;;;1.70;;
39982;SDS011;25670;44.782;10.356;2023-03-16T04:35:44;5.13;;;1.58;;
39982;SDS011;25670;44.782;10.356;2023-03-16T04:38:12;2.95;;;1.65;;
39982;SDS011;25670;44.782;10.356;2023-03-16T04:40:49;2.70;;;1.65;;
39982;SDS011;25670;44.782;10.356;2023-03-16T04:43:18;2.08;;;1.67;;
39982;SDS011;25670;44.782;10.356;2023-03-16T04:45:45;2.75;;;2.08;;
39982;SDS011;25670;44.782;10.356;2023-03-16T04:48:12;1.50;;;1.40;;
39982;SDS011;25670;44.782;10.356;2023-03-16T04:50:39;1.63;;;1.48;;
39982;SDS011;25670;44.782;10.356;2023-03-16T04:53:07;8.23;;;1.95;;
39982;SDS011;25670;44.782;10.356;2023-03-16T04:55:33;2.95;;;2.00;;
39982;SDS011;25670;44.782;10.356;2023-03-16T04:58:01;1.85;;;1.75;;
39982;SDS011;25670;44.782;10.356;2023-03-16T05:00:32;2.45;;;2.13;;
39982;SDS011;25670;44.782;10.356;2023-03-16T05:03:03;2.30;;;2.10;;
39982;SDS011;25670;44.782;10.356;2023-03-16T05:05:29;2.05;;;1.95;;
39982;SDS011;25670;44.782;10.356;2023-03-16T05:07:56;2.35;;;2.05;;
39982;SDS011;25670;44.782;10.356;2023-03-16T05:10:25;3.40;;;2.70;;
39982;SDS011;25670;44.782;10.356;2023-03-16T05:12:51;3.60;;;2.10;;
39982;SDS011;25670;44.782;10.356;2023-03-16T05:15:18;4.82;;;2.30;;
39982;SDS011;25670;44.782;10.356;2023-03-16T05:17:55;2.97;;;2.45;;
39982;SDS011;25670;44.782;10.356;2023-03-16T05:20:22;4.00;;;2.67;;
39982;SDS011;25670;44.782;10.356;2023-03-16T05:22:53;3.22;;;2.53;;
39982;SDS011;25670;44.782;10.356;2023-03-16T05:25:25;4.93;;;2.50;;
39982;SDS011;25670;44.782;10.356;2023-03-16T05:27:54;2.67;;;2.35;;
39982;SDS011;25670;44.782;10.356;2023-03-16T05:30:28;3.25;;;3.05;;
39982;SDS011;25670;44.782;10.356;2023-03-16T05:32:58;3.80;;;2.60;;
39982;SDS011;25670;44.782;10.356;2023-03-16T05:35:26;2.20;;;2.10;;
39982;SDS011;25670;44.782;10.356;2023-03-16T05:37:58;3.78;;;2.33;;
39982;SDS011;25670;44.782;10.356;2023-03-16T05:40:24;3.50;;;2.70;;
39982;SDS011;25670;44.782;10.356;2023-03-16T05:43:12;4.82;;;3.00;;
39982;SDS011;25670;44.782;10.356;2023-03-16T05:45:44;2.88;;;2.67;;
39982;SDS011;25670;44.782;10.356;2023-03-16T05:48:15;7.17;;;3.00;;
39982;SDS011;25670;44.782;10.356;2023-03-16T05:50:45;4.90;;;2.70;;
39982;SDS011;25670;44.782;10.356;2023-03-16T05:53:15;2.80;;;2.30;;
39982;SDS011;25670;44.782;10.356;2023-03-16T05:55:41;11.48;;;2.78;;
39982;SDS011;25670;44.782;10.356;2023-03-16T05:58:11;5.65;;;3.38;;
39982;SDS011;25670;44.782;10.356;2023-03-16T06:00:40;6.50;;;3.47;;
39982;SDS011;25670;44.782;10.356;2023-03-16T06:03:17;5.68;;;4.00;;
39982;SDS011;25670;44.782;10.356;2023-03-16T06:05:43;3.63;;;3.33;;
39982;SDS011;25670;44.782;10.356;2023-03-16T06:08:10;3.35;;;3.00;;
39982;SDS011;25670;44.782;10.356;2023-03-16T06:10:40;3.38;;;2.72;;
39982;SDS011;25670;44.782;10.356;2023-03-16T06:13:07;4.82;;;2.47;;
39982;SDS011;25670;44.782;10.356;2023-03-16T06:15:33;5.78;;;2.97;;
39982;SDS011;25670;44.782;10.356;2023-03-16T06:18:02;8.40;;;3.33;;
39982;SDS011;25670;44.782;10.356;2023-03-16T06:20:28;3.45;;;3.15;;
39982;SDS011;25670;44.782;10.356;2023-03-16T06:22:55;10.10;;;2.58;;
39982;SDS011;25670;44.782;10.356;2023-03-16T06:25:21;5.00;;;3.00;;
39982;SDS011;25670;44.782;10.356;2023-03-16T06:27:49;6.93;;;2.55;;
39982;SDS011;25670;44.782;10.356;2023-03-16T06:30:16;9.40;;;2.70;;
39982;SDS011;25670;44.782;10.356;2023-03-16T06:32:43;2.80;;;2.45;;
39982;SDS011;25670;44.782;10.356;2023-03-16T06:35:10;3.83;;;2.72;;
39982;SDS011;25670;44.782;10.356;2023-03-16T06:37:42;3.30;;;2.33;;
39982;SDS011;25670;44.782;10.356;2023-03-16T06:40:28;11.65;;;3.17;;
39982;SDS011;25670;44.782;10.356;2023-03-16T06:42:55;4.68;;;2.97;;
39982;SDS011;25670;44.782;10.356;2023-03-16T06:45:22;8.48;;;3.17;;
39982;SDS011;25670;44.782;10.356;2023-03-16T06:47:50;3.55;;;3.30;;
39982;SDS011;25670;44.782;10.356;2023-03-16T06:50:17;3.47;;;3.17;;
39982;SDS011;25670;44.782;10.356;2023-03-16T06:52:43;3.30;;;3.00;;
39982;SDS011;25670;44.782;10.356;2023-03-16T06:55:10;5.15;;;2.35;;
39982;SDS011;25670;44.782;10.356;2023-03-16T06:57:40;5.55;;;2.85;;
39982;SDS011;25670;44.782;10.356;2023-03-16T07:00:07;4.43;;;2.92;;
39982;SDS011;25670;44.782;10.356;2023-03-16T07:02:36;2.60;;;2.40;;
39982;SDS011;25670;44.782;10.356;2023-03-16T07:05:06;6.68;;;2.70;;
39982;SDS011;25670;44.782;10.356;2023-03-16T07:07:36;2.75;;;2.55;;
39982;SDS011;25670;44.782;10.356;2023-03-16T07:10:02;3.67;;;2.20;;
39982;SDS011;25670;44.782;10.356;2023-03-16T07:12:29;5.50;;;2.00;;
39982;SDS011;25670;44.782;10.356;2023-03-16T07:14:56;7.05;;;2.63;;
39982;SDS011;25670;44.782;10.356;2023-03-16T07:17:24;2.75;;;2.38;;
39982;SDS011;25670;44.782;10.356;2023-03-16T07:19:50;3.17;;;2.60;;
39982;SDS011;25670;44.782;10.356;2023-03-16T07:22:17;2.30;;;2.10;;
39982;SDS011;25670;44.782;10.356;2023-03-16T07:24:43;2.80;;;2.25;;
39982;SDS011;25670;44.782;10.356;2023-03-16T07:27:11;7.68;;;2.38;;
39982;SDS011;25670;44.782;10.356;2023-03-16T07:29:37;8.75;;;2.42;;
39982;SDS011;25670;44.782;10.356;2023-03-16T07:32:04;2.35;;;2.15;;
39982;SDS011;25670;44.782;10.356;2023-03-16T07:34:35;4.22;;;2.67;;
39982;SDS011;25670;44.782;10.356;2023-03-16T07:37:02;2.65;;;2.45;;
39982;SDS011;25670;44.782;10.356;2023-03-16T07:39:30;3.13;;;2.78;;
39982;SDS011;25670;44.782;10.356;2023-03-16T07:42:04;2.45;;;2.25;;
39982;SDS011;25670;44.782;10.356;2023-03-16T07:44:47;3.38;;;2.25;;
39982;SDS011;25670;44.782;10.356;2023-03-16T07:47:13;6.35;;;3.20;;
39982;SDS011;25670;44.782;10.356;2023-03-16T07:49:41;8.55;;;3.13;;
39982;SDS011;25670;44.782;10.356;2023-03-16T07:52:09;3.58;;;2.83;;
39982;SDS011;25670;44.782;10.356;2023-03-16T07:54:39;4.72;;;2.92;;
39982;SDS011;25670;44.782;10.356;2023-03-16T07:57:07;2.95;;;2.70;;
39982;SDS011;25670;44.782;10.356;2023-03-16T07:59:40;5.38;;;2.92;;
39982;SDS011;25670;44.782;10.356;2023-03-16T08:02:10;4.03;;;2.92;;
39982;SDS011;25670;44.782;10.356;2023-03-16T08:04:40;3.35;;;2.60;;
39982;SDS011;25670;44.782;10.356;2023-03-16T08:07:07;2.80;;;2.60;;
39982;SDS011;25670;44.782;10.356;2023-03-16T08:09:48;2.83;;;2.63;;
39982;SDS011;25670;44.782;10.356;2023-03-16T08:12:21;4.13;;;2.60;;
39982;SDS011;25670;44.782;10.356;2023-03-16T08:14:47;2.72;;;2.53;;
39982;SDS011;25670;44.782;10.356;2023-03-16T08:17:22;2.85;;;2.60;;
39982;SDS011;25670;44.782;10.356;2023-03-16T08:19:49;4.22;;;2.78;;
39982;SDS011;25670;44.782;10.356;2023-03-16T08:22:16;6.75;;;2.70;;
39982;SDS011;25670;44.782;10.356;2023-03-16T08:24:45;2.90;;;2.53;;
39982;SDS011;25670;44.782;10.356;2023-03-16T08:27:13;6.15;;;2.58;;
39982;SDS011;25670;44.782;10.356;2023-03-16T08:29:44;2.58;;;2.38;;
39982;SDS011;25670;44.782;10.356;2023-03-16T08:32:16;2.40;;;2.20;;
39982;SDS011;25670;44.782;10.356;2023-03-16T08:34:43;4.03;;;2.47;;
39982;SDS011;25670;44.782;10.356;2023-03-16T08:37:11;6.15;;;2.53;;
39982;SDS011;25670;44.782;10.356;2023-03-16T08:39:39;2.38;;;2.17;;
39982;SDS011;25670;44.782;10.356;2023-03-16T08:42:10;2.38;;;2.10;;
39982;SDS011;25670;44.782;10.356;2023-03-16T08:44:44;3.70;;;2.05;;
39982;SDS011;25670;44.782;10.356;2023-03-16T08:47:10;2.80;;;2.60;;
39982;SDS011;25670;44.782;10.356;2023-03-16T08:49:39;2.65;;;2.45;;
39982;SDS011;25670;44.782;10.356;2023-03-16T08:52:12;2.55;;;2.22;;
39982;SDS011;25670;44.782;10.356;2023-03-16T08:54:39;2.92;;;2.70;;
39982;SDS011;25670;44.782;10.356;2023-03-16T08:57:06;3.60;;;2.08;;
39982;SDS011;25670;44.782;10.356;2023-03-16T08:59:35;2.78;;;2.28;;
39982;SDS011;25670;44.782;10.356;2023-03-16T09:02:01;4.93;;;2.45;;
39982;SDS011;25670;44.782;10.356;2023-03-16T09:04:28;7.40;;;1.80;;
39982;SDS011;25670;44.782;10.356;2023-03-16T09:06:55;4.65;;;2.28;;
39982;SDS011;25670;44.782;10.356;2023-03-16T09:09:23;1.98;;;1.88;;
39982;SDS011;25670;44.782;10.356;2023-03-16T09:11:49;6.68;;;2.38;;
39982;SDS011;25670;44.782;10.356;2023-03-16T09:14:16;2.20;;;2.00;;
39982;SDS011;25670;44.782;10.356;2023-03-16T09:16:44;3.40;;;1.70;;
39982;SDS011;25670;44.782;10.356;2023-03-16T09:19:10;3.30;;;2.05;;
39982;SDS011;25670;44.782;10.356;2023-03-16T09:21:38;2.03;;;1.92;;
39982;SDS011;25670;44.782;10.356;2023-03-16T09:24:04;6.82;;;2.13;;
39982;SDS011;25670;44.782;10.356;2023-03-16T09:26:34;2.60;;;2.40;;
39982;SDS011;25670;44.782;10.356;2023-03-16T09:29:02;2.33;;;2.22;;
39982;SDS011;25670;44.782;10.356;2023-03-16T09:31:28;6.28;;;2.60;;
39982;SDS011;25670;44.782;10.356;2023-03-16T09:33:55;3.50;;;2.90;;
39982;SDS011;25670;44.782;10.356;2023-03-16T09:36:21;3.83;;;2.75;;
39982;SDS011;25670;44.782;10.356;2023-03-16T09:38:48;2.95;;;2.72;;
39982;SDS011;25670;44.782;10.356;2023-03-16T09:46:09;3.50;;;2.80;;
39982;SDS011;25670;44.782;10.356;2023-03-16T09:48:42;3.10;;;2.90;;
39982;SDS011;25670;44.782;10.356;2023-03-16T09:51:12;3.15;;;2.72;;
39982;SDS011;25670;44.782;10.356;2023-03-16T09:54:04;4.50;;;2.90;;
39982;SDS011;25670;44.782;10.356;2023-03-16T09:57:03;3.60;;;2.53;;
39982;SDS011;25670;44.782;10.356;2023-03-16T09:59:37;4.40;;;3.38;;
39982;SDS011;25670;44.782;10.356;2023-03-16T10:02:19;7.28;;;3.50;;
39982;SDS011;25670;44.782;10.356;2023-03-16T10:13:02;3.08;;;2.83;;
39982;SDS011;25670;44.782;10.356;2023-03-16T10:15:36;3.22;;;3.03;;
39982;SDS011;25670;44.782;10.356;2023-03-16T10:18:15;2.70;;;2.50;;
39982;SDS011;25670;44.782;10.356;2023-03-16T10:20:47;3.88;;;2.22;;
39982;SDS011;25670;44.782;10.356;2023-03-16T10:23:19;2.42;;;2.20;;
39982;SDS011;25670;44.782;10.356;2023-03-16T10:25:50;2.47;;;2.38;;
39982;SDS011;25670;44.782;10.356;2023-03-16T10:30:47;4.55;;;2.40;;
39982;SDS011;25670;44.782;10.356;2023-03-16T10:33:33;3.58;;;2.65;;
39982;SDS011;25670;44.782;10.356;2023-03-16T10:38:41;5.47;;;2.72;;
39982;SDS011;25670;44.782;10.356;2023-03-16T10:43:45;7.63;;;3.50;;
39982;SDS011;25670;44.782;10.356;2023-03-16T10:46:14;3.33;;;3.03;;
39982;SDS011;25670;44.782;10.356;2023-03-16T10:48:41;5.53;;;2.85;;
39982;SDS011;25670;44.782;10.356;2023-03-16T10:51:11;3.38;;;2.33;;
39982;SDS011;25670;44.782;10.356;2023-03-16T10:53:41;3.83;;;3.08;;
39982;SDS011;25670;44.782;10.356;2023-03-16T10:56:10;3.83;;;3.38;;
39982;SDS011;25670;44.782;10.356;2023-03-16T10:58:39;3.28;;;2.97;;
39982;SDS011;25670;44.782;10.356;2023-03-16T11:01:23;3.00;;;2.70;;
39982;SDS011;25670;44.782;10.356;2023-03-16T11:03:54;3.28;;;3.08;;
39982;SDS011;25670;44.782;10.356;2023-03-16T11:06:26;4.80;;;3.03;;
39982;SDS011;25670;44.782;10.356;2023-03-16T11:09:02;10.48;;;3.25;;
39982;SDS011;25670;44.782;10.356;2023-03-16T11:11:37;5.25;;;2.47;;
39982;SDS011;25670;44.782;10.356;2023-03-16T11:14:10;3.15;;;2.38;;
39982;SDS011;25670;44.782;10.356;2023-03-16T11:16:41;9.20;;;2.35;;
39982;SDS011;25670;44.782;10.356;2023-03-16T11:19:24;2.35;;;1.80;;
39982;SDS011;25670;44.782;10.356;2023-03-16T11:21:57;3.28;;;1.98;;
39982;SDS011;25670;44.782;10.356;2023-03-16T11:32:25;1.15;;;1.10;;
39982;SDS011;25670;44.782;10.356;2023-03-16T11:34:56;2.15;;;0.85;;
39982;SDS011;25670;44.782;10.356;2023-03-16T11:37:32;2.40;;;0.90;;
39982;SDS011;25670;44.782;10.356;2023-03-16T11:40:22;1.27;;;0.93;;
39982;SDS011;25670;44.782;10.356;2023-03-16T11:48:36;1.13;;;1.02;;
39982;SDS011;25670;44.782;10.356;2023-03-16T11:51:08;1.27;;;1.00;;
39982;SDS011;25670;44.782;10.356;2023-03-16T11:54:12;2.38;;;1.10;;
39982;SDS011;25670;44.782;10.356;2023-03-16T12:11:13;2.05;;;1.00;;
39982;SDS011;25670;44.782;10.356;2023-03-16T12:16:28;2.15;;;1.00;;
39982;SDS011;25670;44.782;10.356;2023-03-16T12:19:21;1.13;;;0.90;;
39982;SDS011;25670;44.782;10.356;2023-03-16T12:22:16;1.23;;;1.20;;
39982;SDS011;25670;44.782;10.356;2023-03-16T12:24:46;1.27;;;0.60;;
39982;SDS011;25670;44.782;10.356;2023-03-16T12:27:14;1.00;;;0.80;;
39982;SDS011;25670;44.782;10.356;2023-03-16T12:29:47;1.85;;;0.85;;
39982;SDS011;25670;44.782;10.356;2023-03-16T12:45:58;1.38;;;1.10;;
39982;SDS011;25670;44.782;10.356;2023-03-16T12:48:35;4.78;;;0.90;;
39982;SDS011;25670;44.782;10.356;2023-03-16T12:51:09;1.45;;;1.33;;
39982;SDS011;25670;44.782;10.356;2023-03-16T12:53:42;1.25;;;1.15;;
39982;SDS011;25670;44.782;10.356;2023-03-16T12:56:15;2.25;;;1.60;;
39982;SDS011;25670;44.782;10.356;2023-03-16T12:58:47;3.25;;;1.00;;
39982;SDS011;25670;44.782;10.356;2023-03-16T13:01:18;2.58;;;1.23;;
39982;SDS011;25670;44.782;10.356;2023-03-16T13:03:58;2.13;;;1.20;;
39982;SDS011;25670;44.782;10.356;2023-03-16T13:06:34;1.02;;;0.90;;
39982;SDS011;25670;44.782;10.356;2023-03-16T13:09:02;1.10;;;1.00;;
39982;SDS011;25670;44.782;10.356;2023-03-16T13:11:43;1.45;;;1.10;;
39982;SDS011;25670;44.782;10.356;2023-03-16T13:14:15;2.35;;;1.13;;
39982;SDS011;25670;44.782;10.356;2023-03-16T13:17:02;1.85;;;1.30;;
39982;SDS011;25670;44.782;10.356;2023-03-16T13:22:40;3.33;;;1.08;;
39982;SDS011;25670;44.782;10.356;2023-03-16T13:25:15;1.55;;;1.30;;
39982;SDS011;25670;44.782;10.356;2023-03-16T13:27:47;1.20;;;1.10;;
39982;SDS011;25670;44.782;10.356;2023-03-16T13:33:16;1.95;;;1.50;;
39982;SDS011;25670;44.782;10.356;2023-03-16T13:35:49;1.90;;;1.42;;
39982;SDS011;25670;44.782;10.356;2023-03-16T13:38:18;1.70;;;1.60;;
39982;SDS011;25670;44.782;10.356;2023-03-16T13:40:57;1.48;;;1.38;;
39982;SDS011;25670;44.782;10.356;2023-03-16T13:43:28;3.72;;;1.35;;
39982;SDS011;25670;44.782;10.356;2023-03-16T13:45:57;1.75;;;1.50;;
39982;SDS011;25670;44.782;10.356;2023-03-16T13:48:24;3.80;;;1.25;;
39982;SDS011;25670;44.782;10.356;2023-03-16T13:50:54;4.35;;;1.45;;
39982;SDS011;25670;44.782;10.356;2023-03-16T13:53:28;1.80;;;1.70;;
39982;SDS011;25670;44.782;10.356;2023-03-16T13:55:58;1.58;;;1.48;;
39982;SDS011;25670;44.782;10.356;2023-03-16T13:58:33;1.50;;;1.40;;
39982;SDS011;25670;44.782;10.356;2023-03-16T14:01:03;3.00;;;1.85;;
39982;SDS011;25670;44.782;10.356;2023-03-16T14:03:37;1.33;;;1.23;;
39982;SDS011;25670;44.782;10.356;2023-03-16T14:06:16;1.45;;;1.35;;
39982;SDS011;25670;44.782;10.356;2023-03-16T14:08:50;1.48;;;1.38;;
39982;SDS011;25670;44.782;10.356;2023-03-16T14:11:19;1.63;;;1.13;;
39982;SDS011;25670;44.782;10.356;2023-03-16T14:13:49;4.43;;;1.67;;
39982;SDS011;25670;44.782;10.356;2023-03-16T14:16:18;6.80;;;2.33;;
39982;SDS011;25670;44.782;10.356;2023-03-16T14:18:47;1.63;;;1.40;;
39982;SDS011;25670;44.782;10.356;2023-03-16T14:21:21;1.10;;;1.10;;
39982;SDS011;25670;44.782;10.356;2023-03-16T14:23:53;1.75;;;1.63;;
39982;SDS011;25670;44.782;10.356;2023-03-16T14:26:23;1.40;;;1.30;;
39982;SDS011;25670;44.782;10.356;2023-03-16T14:28:53;2.05;;;1.63;;
39982;SDS011;25670;44.782;10.356;2023-03-16T14:31:31;1.27;;;1.13;;
39982;SDS011;25670;44.782;10.356;2023-03-16T14:34:00;2.58;;;1.23;;
39982;SDS011;25670;44.782;10.356;2023-03-16T14:36:33;2.28;;;1.38;;
39982;SDS011;25670;44.782;10.356;2023-03-16T14:39:15;1.20;;;1.10;;
39982;SDS011;25670;44.782;10.356;2023-03-16T14:41:47;1.65;;;1.55;;
39982;SDS011;25670;44.782;10.356;2023-03-16T14:44:21;1.35;;;1.25;;
39982;SDS011;25670;44.782;10.356;2023-03-16T14:46:52;1.60;;;1.30;;
39982;SDS011;25670;44.782;10.356;2023-03-16T14:51:53;1.70;;;1.30;;
39982;SDS011;25670;44.782;10.356;2023-03-16T14:54:28;1.40;;;1.30;;
39982;SDS011;25670;44.782;10.356;2023-03-16T14:57:00;2.17;;;1.23;;
39982;SDS011;25670;44.782;10.356;2023-03-16T14:59:28;2.22;;;2.13;;
39982;SDS011;25670;44.782;10.356;2023-03-16T15:01:55;4.63;;;1.38;;
39982;SDS011;25670;44.782;10.356;2023-03-16T15:04:32;3.78;;;1.42;;
39982;SDS011;25670;44.782;10.356;2023-03-16T15:07:01;1.60;;;1.50;;
39982;SDS011;25670;44.782;10.356;2023-03-16T15:09:43;2.40;;;1.38;;
39982;SDS011;25670;44.782;10.356;2023-03-16T15:12:13;1.65;;;1.55;;
39982;SDS011;25670;44.782;10.356;2023-03-16T15:14:41;1.88;;;1.30;;
39982;SDS011;25670;44.782;10.356;2023-03-16T15:17:36;1.80;;;1.23;;
39982;SDS011;25670;44.782;10.356;2023-03-16T15:20:03;3.10;;;1.30;;
39982;SDS011;25670;44.782;10.356;2023-03-16T15:22:30;1.83;;;1.50;;
39982;SDS011;25670;44.782;10.356;2023-03-16T15:25:10;2.03;;;1.38;;
39982;SDS011;25670;44.782;10.356;2023-03-16T15:28:09;1.92;;;1.73;;
39982;SDS011;25670;44.782;10.356;2023-03-16T15:30:41;3.42;;;1.70;;
39982;SDS011;25670;44.782;10.356;2023-03-16T15:33:09;2.15;;;1.20;;
39982;SDS011;25670;44.782;10.356;2023-03-16T15:35:36;3.17;;;1.55;;
39982;SDS011;25670;44.782;10.356;2023-03-16T15:38:05;1.60;;;1.50;;
39982;SDS011;25670;44.782;10.356;2023-03-16T15:40:38;2.17;;;1.20;;
39982;SDS011;25670;44.782;10.356;2023-03-16T15:43:10;1.50;;;1.30;;
39982;SDS011;25670;44.782;10.356;2023-03-16T15:45:37;1.45;;;1.35;;
39982;SDS011;25670;44.782;10.356;2023-03-16T15:48:04;1.70;;;1.20;;
39982;SDS011;25670;44.782;10.356;2023-03-16T15:50:30;2.40;;;1.60;;
39982;SDS011;25670;44.782;10.356;2023-03-16T15:53:07;2.28;;;1.30;;
39982;SDS011;25670;44.782;10.356;2023-03-16T15:55:43;1.88;;;1.73;;
39982;SDS011;25670;44.782;10.356;2023-03-16T15:58:15;1.38;;;1.00;;
39982;SDS011;25670;44.782;10.356;2023-03-16T16:00:45;1.40;;;1.27;;
39982;SDS011;25670;44.782;10.356;2023-03-16T16:03:13;1.40;;;1.30;;
39982;SDS011;25670;44.782;10.356;2023-03-16T16:05:39;1.40;;;1.30;;
39982;SDS011;25670;44.782;10.356;2023-03-16T16:08:06;1.73;;;1.42;;
39982;SDS011;25670;44.782;10.356;2023-03-16T16:10:32;1.42;;;1.30;;
39982;SDS011;25670;44.782;10.356;2023-03-16T16:12:59;1.65;;;1.52;;
39982;SDS011;25670;44.782;10.356;2023-03-16T16:15:27;1.80;;;1.45;;
39982;SDS011;25670;44.782;10.356;2023-03-16T16:17:58;4.65;;;1.55;;
39982;SDS011;25670;44.782;10.356;2023-03-16T16:20:30;1.95;;;1.52;;